sensor_id;sensor_type;location;lat;lon;timestamp;pressure;altitude;pressure_sealevel;temperature;humidity
21433;BME280;18592;49.708;10.900;2024-03-22T00:01:41;99304.31;;;14.58;47.39
21433;BME280;18592;49.708;10.900;2024-03-22T00:03:42;99294.13;;;14.54;47.59
21433;BME280;18592;49.708;10.900;2024-03-22T00:05:42;99287.81;;;14.53;47.58
21433;BME280;18592;49.708;10.900;2024-03-22T00:07:43;99291.31;;;14.49;48.21
21433;BME280;18592;49.708;10.900;2024-03-22T00:09:54;99281.69;;;14.46;48.06
21433;BME280;18592;49.708;10.900;2024-03-22T00:11:54;99275.88;;;14.43;48.62
21433;BME280;18592;49.708;10.900;2024-03-22T00:14:07;99280.53;;;14.42;48.17
21433;BME280;18592;49.708;10.900;2024-03-22T00:16:08;99277.22;;;14.40;47.95
21433;BME280;18592;49.708;10.900;2024-03-22T00:18:08;99286.03;;;14.42;47.61
21433;BME280;18592;49.708;10.900;2024-03-22T00:20:09;99278.91;;;14.41;47.39
21433;BME280;18592;49.708;10.900;2024-03-22T00:22:09;99275.00;;;14.37;47.59
21433;BME280;18592;49.708;10.900;2024-03-22T00:24:21;99267.03;;;14.36;47.65
21433;BME280;18592;49.708;10.900;2024-03-22T00:26:21;99264.81;;;14.33;47.75
21433;BME280;18592;49.708;10.900;2024-03-22T00:28:22;99260.63;;;14.30;47.84
21433;BME280;18592;49.708;10.900;2024-03-22T00:30:22;99252.69;;;14.29;47.67
21433;BME280;18592;49.708;10.900;2024-03-22T00:32:23;99265.00;;;14.26;48.05
21433;BME280;18592;49.708;10.900;2024-03-22T00:34:23;99258.41;;;14.27;48.04
21433;BME280;18592;49.708;10.900;2024-03-22T00:36:23;99260.00;;;14.23;47.88
21433;BME280;18592;49.708;10.900;2024-03-22T00:38:24;99260.00;;;14.23;47.70
21433;BME280;18592;49.708;10.900;2024-03-22T00:40:24;99270.41;;;14.21;47.46
21433;BME280;18592;49.708;10.900;2024-03-22T00:42:25;99263.53;;;14.19;47.47
21433;BME280;18592;49.708;10.900;2024-03-22T00:44:25;99263.78;;;14.17;47.40
21433;BME280;18592;49.708;10.900;2024-03-22T00:46:25;99257.44;;;14.17;46.91
21433;BME280;18592;49.708;10.900;2024-03-22T00:48:26;99263.22;;;14.15;47.14
21433;BME280;18592;49.708;10.900;2024-03-22T00:50:26;99259.91;;;14.13;47.19
21433;BME280;18592;49.708;10.900;2024-03-22T00:52:27;99262.88;;;14.12;47.08
21433;BME280;18592;49.708;10.900;2024-03-22T00:54:28;99260.41;;;14.10;47.06
21433;BME280;18592;49.708;10.900;2024-03-22T00:56:28;99259.84;;;14.08;46.97
21433;BME280;18592;49.708;10.900;2024-03-22T00:58:29;99261.75;;;14.08;46.78
21433;BME280;18592;49.708;10.900;2024-03-22T01:00:29;99256.78;;;14.05;46.84
21433;BME280;18592;49.708;10.900;2024-03-22T01:02:30;99251.56;;;14.03;46.66
21433;BME280;18592;49.708;10.900;2024-03-22T01:04:30;99249.06;;;14.01;46.80
21433;BME280;18592;49.708;10.900;2024-03-22T01:06:30;99253.13;;;13.99;46.63
21433;BME280;18592;49.708;10.900;2024-03-22T01:08:31;99254.47;;;13.96;46.73
21433;BME280;18592;49.708;10.900;2024-03-22T01:10:33;99257.47;;;13.95;46.83
21433;BME280;18592;49.708;10.900;2024-03-22T01:12:33;99261.84;;;13.91;46.91
21433;BME280;18592;49.708;10.900;2024-03-22T01:14:33;99256.03;;;13.87;47.20
21433;BME280;18592;49.708;10.900;2024-03-22T01:16:34;99256.53;;;13.84;47.47
21433;BME280;18592;49.708;10.900;2024-03-22T01:18:34;99246.91;;;13.82;47.02
21433;BME280;18592;49.708;10.900;2024-03-22T01:20:34;99250.75;;;13.81;47.44
21433;BME280;18592;49.708;10.900;2024-03-22T01:22:48;99253.72;;;13.79;47.00
21433;BME280;18592;49.708;10.900;2024-03-22T01:24:49;99244.09;;;13.77;47.12
21433;BME280;18592;49.708;10.900;2024-03-22T01:27:05;99239.94;;;13.74;47.19
21433;BME280;18592;49.708;10.900;2024-03-22T01:29:05;99241.84;;;13.74;46.91
21433;BME280;18592;49.708;10.900;2024-03-22T01:31:05;99240.22;;;13.73;47.06
21433;BME280;18592;49.708;10.900;2024-03-22T01:33:06;99251.41;;;13.71;47.15
21433;BME280;18592;49.708;10.900;2024-03-22T01:35:07;99239.66;;;13.71;47.14
21433;BME280;18592;49.708;10.900;2024-03-22T01:37:08;99230.59;;;13.70;46.58
21433;BME280;18592;49.708;10.900;2024-03-22T01:39:08;99224.56;;;13.68;46.60
21433;BME280;18592;49.708;10.900;2024-03-22T01:41:08;99221.75;;;13.63;47.70
21433;BME280;18592;49.708;10.900;2024-03-22T01:43:09;99221.69;;;13.58;48.19
21433;BME280;18592;49.708;10.900;2024-03-22T01:45:13;99218.88;;;13.53;48.44
21433;BME280;18592;49.708;10.900;2024-03-22T01:47:27;99216.63;;;13.50;48.54
21433;BME280;18592;49.708;10.900;2024-03-22T01:49:28;99214.75;;;13.51;48.26
21433;BME280;18592;49.708;10.900;2024-03-22T01:51:29;99208.66;;;13.49;48.24
21433;BME280;18592;49.708;10.900;2024-03-22T01:53:29;99207.59;;;13.50;48.13
21433;BME280;18592;49.708;10.900;2024-03-22T01:55:29;99208.66;;;13.49;47.84
21433;BME280;18592;49.708;10.900;2024-03-22T01:57:30;99208.09;;;13.47;47.76
21433;BME280;18592;49.708;10.900;2024-03-22T01:59:32;99203.72;;;13.46;47.69
21433;BME280;18592;49.708;10.900;2024-03-22T02:01:34;99194.91;;;13.44;47.67
21433;BME280;18592;49.708;10.900;2024-03-22T02:03:35;99202.03;;;13.45;47.41
21433;BME280;18592;49.708;10.900;2024-03-22T02:05:35;99199.31;;;13.45;47.42
21433;BME280;18592;49.708;10.900;2024-03-22T02:07:36;99200.38;;;13.44;47.39
21433;BME280;18592;49.708;10.900;2024-03-22T02:09:38;99196.84;;;13.43;47.43
21433;BME280;18592;49.708;10.900;2024-03-22T02:11:44;99196.22;;;13.41;47.11
21433;BME280;18592;49.708;10.900;2024-03-22T02:13:59;99192.69;;;13.41;47.10
21433;BME280;18592;49.708;10.900;2024-03-22T02:16:04;99192.34;;;13.37;48.02
21433;BME280;18592;49.708;10.900;2024-03-22T02:18:04;99199.75;;;13.36;47.57
21433;BME280;18592;49.708;10.900;2024-03-22T02:20:06;99199.44;;;13.33;47.94
21433;BME280;18592;49.708;10.900;2024-03-22T02:22:07;99194.47;;;13.30;47.75
21433;BME280;18592;49.708;10.900;2024-03-22T02:24:08;99184.84;;;13.27;47.67
21433;BME280;18592;49.708;10.900;2024-03-22T02:26:08;99191.66;;;13.25;47.66
21433;BME280;18592;49.708;10.900;2024-03-22T02:28:08;99196.78;;;13.21;47.64
21433;BME280;18592;49.708;10.900;2024-03-22T02:30:09;99186.34;;;13.18;48.25
21433;BME280;18592;49.708;10.900;2024-03-22T02:32:10;99195.38;;;13.19;47.65
21433;BME280;18592;49.708;10.900;2024-03-22T02:34:12;99192.34;;;13.15;47.24
21433;BME280;18592;49.708;10.900;2024-03-22T02:36:13;99189.84;;;13.14;47.38
21433;BME280;18592;49.708;10.900;2024-03-22T02:38:13;99187.38;;;13.12;47.62
21433;BME280;18592;49.708;10.900;2024-03-22T02:40:24;99184.06;;;13.10;47.12
21433;BME280;18592;49.708;10.900;2024-03-22T02:42:24;99176.91;;;13.09;47.08
21433;BME280;18592;49.708;10.900;2024-03-22T02:44:25;99182.38;;;13.09;47.24
21433;BME280;18592;49.708;10.900;2024-03-22T02:46:25;99171.69;;;13.08;47.21
21433;BME280;18592;49.708;10.900;2024-03-22T02:48:25;99167.75;;;13.04;47.50
21433;BME280;18592;49.708;10.900;2024-03-22T02:50:26;99160.66;;;13.03;46.97
21433;BME280;18592;49.708;10.900;2024-03-22T02:52:26;99158.16;;;13.01;47.01
21433;BME280;18592;49.708;10.900;2024-03-22T02:54:26;99156.75;;;12.99;46.92
21433;BME280;18592;49.708;10.900;2024-03-22T02:56:27;99146.06;;;12.97;47.04
21433;BME280;18592;49.708;10.900;2024-03-22T02:58:40;99146.56;;;12.94;46.75
21433;BME280;18592;49.708;10.900;2024-03-22T03:00:40;99155.03;;;12.93;46.80
21433;BME280;18592;49.708;10.900;2024-03-22T03:02:41;99154.69;;;12.89;46.55
21433;BME280;18592;49.708;10.900;2024-03-22T03:04:41;99152.44;;;12.86;46.60
21433;BME280;18592;49.708;10.900;2024-03-22T03:06:42;99145.84;;;12.82;47.16
21433;BME280;18592;49.708;10.900;2024-03-22T03:08:42;99153.97;;;12.77;47.28
21433;BME280;18592;49.708;10.900;2024-03-22T03:10:42;99144.09;;;12.76;47.06
21433;BME280;18592;49.708;10.900;2024-03-22T03:12:43;99151.72;;;12.74;46.93
21433;BME280;18592;49.708;10.900;2024-03-22T03:14:43;99143.75;;;12.72;47.03
21433;BME280;18592;49.708;10.900;2024-03-22T03:16:43;99149.97;;;12.68;47.23
21433;BME280;18592;49.708;10.900;2024-03-22T03:18:44;99143.94;;;12.66;47.06
21433;BME280;18592;49.708;10.900;2024-03-22T03:20:44;99155.16;;;12.64;46.96
21433;BME280;18592;49.708;10.900;2024-03-22T03:22:44;99148.84;;;12.64;46.76
21433;BME280;18592;49.708;10.900;2024-03-22T03:24:45;99146.88;;;12.59;46.73
21433;BME280;18592;49.708;10.900;2024-03-22T03:26:45;99139.16;;;12.56;47.02
21433;BME280;18592;49.708;10.900;2024-03-22T03:28:46;99145.69;;;12.55;47.10
21433;BME280;18592;49.708;10.900;2024-03-22T03:30:46;99144.28;;;12.53;47.19
21433;BME280;18592;49.708;10.900;2024-03-22T03:32:53;99142.28;;;12.48;47.23
21433;BME280;18592;49.708;10.900;2024-03-22T03:34:54;99148.03;;;12.47;47.17
21433;BME280;18592;49.708;10.900;2024-03-22T03:36:54;99147.41;;;12.45;47.27
21433;BME280;18592;49.708;10.900;2024-03-22T03:38:55;99152.09;;;12.44;47.31
21433;BME280;18592;49.708;10.900;2024-03-22T03:40:55;99161.09;;;12.45;47.26
21433;BME280;18592;49.708;10.900;2024-03-22T03:42:55;99145.78;;;12.44;47.31
21433;BME280;18592;49.708;10.900;2024-03-22T03:44:56;99146.84;;;12.43;47.40
21433;BME280;18592;49.708;10.900;2024-03-22T03:46:56;99148.44;;;12.39;47.19
21433;BME280;18592;49.708;10.900;2024-03-22T03:48:56;99163.16;;;12.38;47.38
21433;BME280;18592;49.708;10.900;2024-03-22T03:50:59;99155.44;;;12.35;47.28
21433;BME280;18592;49.708;10.900;2024-03-22T03:53:03;99163.66;;;12.35;47.11
21433;BME280;18592;49.708;10.900;2024-03-22T03:55:03;99157.63;;;12.33;47.18
21433;BME280;18592;49.708;10.900;2024-03-22T03:57:04;99153.25;;;12.32;47.39
21433;BME280;18592;49.708;10.900;2024-03-22T03:59:04;99154.22;;;12.26;47.33
21433;BME280;18592;49.708;10.900;2024-03-22T04:01:08;99150.91;;;12.24;47.13
21433;BME280;18592;49.708;10.900;2024-03-22T04:03:09;99139.97;;;12.24;47.16
21433;BME280;18592;49.708;10.900;2024-03-22T04:05:09;99150.06;;;12.23;47.13
21433;BME280;18592;49.708;10.900;2024-03-22T04:07:09;99148.66;;;12.21;47.00
21433;BME280;18592;49.708;10.900;2024-03-22T04:09:10;99150.25;;;12.17;47.32
21433;BME280;18592;49.708;10.900;2024-03-22T04:11:10;99143.94;;;12.16;47.21
21433;BME280;18592;49.708;10.900;2024-03-22T04:13:11;99140.38;;;12.16;47.32
21433;BME280;18592;49.708;10.900;2024-03-22T04:15:12;99154.31;;;12.14;47.44
21433;BME280;18592;49.708;10.900;2024-03-22T04:17:12;99143.03;;;12.10;48.10
21433;BME280;18592;49.708;10.900;2024-03-22T04:19:12;99151.22;;;12.10;48.14
21433;BME280;18592;49.708;10.900;2024-03-22T04:21:13;99144.09;;;12.09;48.42
21433;BME280;18592;49.708;10.900;2024-03-22T04:23:13;99142.44;;;12.08;48.13
21433;BME280;18592;49.708;10.900;2024-03-22T04:25:13;99149.81;;;12.08;48.75
21433;BME280;18592;49.708;10.900;2024-03-22T04:27:14;99154.69;;;12.06;48.63
21433;BME280;18592;49.708;10.900;2024-03-22T04:29:14;99153.03;;;12.05;48.83
21433;BME280;18592;49.708;10.900;2024-03-22T04:31:14;99150.28;;;12.05;48.46
21433;BME280;18592;49.708;10.900;2024-03-22T04:33:15;99155.19;;;12.03;48.46
21433;BME280;18592;49.708;10.900;2024-03-22T04:35:16;99157.34;;;12.01;48.58
21433;BME280;18592;49.708;10.900;2024-03-22T04:37:16;99158.97;;;12.02;48.38
21433;BME280;18592;49.708;10.900;2024-03-22T04:39:16;99156.50;;;12.00;48.15
21433;BME280;18592;49.708;10.900;2024-03-22T04:41:17;99141.16;;;11.99;48.32
21433;BME280;18592;49.708;10.900;2024-03-22T04:43:17;99148.31;;;12.00;47.98
21433;BME280;18592;49.708;10.900;2024-03-22T04:45:18;99154.03;;;11.99;47.96
21433;BME280;18592;49.708;10.900;2024-03-22T04:47:18;99143.31;;;11.97;47.80
21433;BME280;18592;49.708;10.900;2024-03-22T04:49:19;99148.22;;;11.95;47.69
21433;BME280;18592;49.708;10.900;2024-03-22T04:51:19;99151.19;;;11.94;47.71
21433;BME280;18592;49.708;10.900;2024-03-22T04:53:20;99143.31;;;11.97;47.76
21433;BME280;18592;49.708;10.900;2024-03-22T04:55:21;99149.03;;;11.96;47.64
21433;BME280;18592;49.708;10.900;2024-03-22T04:57:21;99150.38;;;11.93;47.72
21433;BME280;18592;49.708;10.900;2024-03-22T04:59:22;99152.25;;;11.93;47.79
21433;BME280;18592;49.708;10.900;2024-03-22T05:01:22;99150.84;;;11.90;48.04
21433;BME280;18592;49.708;10.900;2024-03-22T05:03:23;99149.19;;;11.89;47.76
21433;BME280;18592;49.708;10.900;2024-03-22T05:05:24;99152.16;;;11.88;47.92
21433;BME280;18592;49.708;10.900;2024-03-22T05:07:24;99143.41;;;11.86;48.25
21433;BME280;18592;49.708;10.900;2024-03-22T05:09:25;99148.03;;;11.85;48.06
21433;BME280;18592;49.708;10.900;2024-03-22T05:11:25;99145.28;;;11.85;48.12
21433;BME280;18592;49.708;10.900;2024-03-22T05:13:26;99137.09;;;11.85;47.97
21433;BME280;18592;49.708;10.900;2024-03-22T05:15:26;99124.28;;;11.86;47.93
21433;BME280;18592;49.708;10.900;2024-03-22T05:17:27;99127.00;;;11.86;48.36
21433;BME280;18592;49.708;10.900;2024-03-22T05:19:28;99118.22;;;11.84;48.14
21433;BME280;18592;49.708;10.900;2024-03-22T05:21:29;99120.97;;;11.84;47.95
21433;BME280;18592;49.708;10.900;2024-03-22T05:23:29;99115.50;;;11.84;48.08
21433;BME280;18592;49.708;10.900;2024-03-22T05:25:29;99114.66;;;11.83;48.11
21433;BME280;18592;49.708;10.900;2024-03-22T05:27:33;99114.41;;;11.85;47.83
21433;BME280;18592;49.708;10.900;2024-03-22T05:29:34;99114.66;;;11.83;48.26
21433;BME280;18592;49.708;10.900;2024-03-22T05:31:46;99114.56;;;11.78;48.50
21433;BME280;18592;49.708;10.900;2024-03-22T05:33:47;99116.22;;;11.79;48.46
21433;BME280;18592;49.708;10.900;2024-03-22T05:35:47;99107.22;;;11.79;48.69
21433;BME280;18592;49.708;10.900;2024-03-22T05:37:47;99112.69;;;11.79;48.23
21433;BME280;18592;49.708;10.900;2024-03-22T05:39:49;99114.00;;;11.76;49.03
21433;BME280;18592;49.708;10.900;2024-03-22T05:42:01;99104.72;;;11.77;48.98
21433;BME280;18592;49.708;10.900;2024-03-22T05:44:01;99095.47;;;11.78;49.11
21433;BME280;18592;49.708;10.900;2024-03-22T05:46:03;99097.09;;;11.79;49.04
21433;BME280;18592;49.708;10.900;2024-03-22T05:48:03;99108.03;;;11.79;49.16
21433;BME280;18592;49.708;10.900;2024-03-22T05:50:04;99097.09;;;11.79;49.23
21433;BME280;18592;49.708;10.900;2024-03-22T05:52:08;99099.03;;;11.79;49.23
21433;BME280;18592;49.708;10.900;2024-03-22T05:54:09;99101.50;;;11.80;49.06
21433;BME280;18592;49.708;10.900;2024-03-22T05:56:09;99096.88;;;11.81;49.45
21433;BME280;18592;49.708;10.900;2024-03-22T05:58:10;99093.31;;;11.80;49.17
21433;BME280;18592;49.708;10.900;2024-03-22T06:00:10;99090.56;;;11.80;48.95
21433;BME280;18592;49.708;10.900;2024-03-22T06:02:21;99090.81;;;11.79;49.00
21433;BME280;18592;49.708;10.900;2024-03-22T06:04:36;99086.44;;;11.78;48.88
21433;BME280;18592;49.708;10.900;2024-03-22T06:06:36;99091.06;;;11.77;49.07
21433;BME280;18592;49.708;10.900;2024-03-22T06:08:38;99086.16;;;11.79;49.01
21433;BME280;18592;49.708;10.900;2024-03-22T06:10:39;99081.53;;;11.80;48.67
21433;BME280;18592;49.708;10.900;2024-03-22T06:12:40;99075.25;;;11.79;48.65
21433;BME280;18592;49.708;10.900;2024-03-22T06:14:41;99079.91;;;11.79;48.55
21433;BME280;18592;49.708;10.900;2024-03-22T06:16:50;99084.75;;;11.77;48.55
21433;BME280;18592;49.708;10.900;2024-03-22T06:19:17;99081.94;;;11.72;48.27
21433;BME280;18592;49.708;10.900;2024-03-22T06:21:25;99082.19;;;11.70;48.09
21433;BME280;18592;49.708;10.900;2024-03-22T06:23:52;99080.53;;;11.69;48.12
21433;BME280;18592;49.708;10.900;2024-03-22T06:26:00;99078.88;;;11.68;48.46
21433;BME280;18592;49.708;10.900;2024-03-22T06:28:28;99075.78;;;11.65;48.11
21433;BME280;18592;49.708;10.900;2024-03-22T06:30:59;99067.50;;;11.60;48.35
21433;BME280;18592;49.708;10.900;2024-03-22T06:33:16;99066.91;;;11.58;48.12
21433;BME280;18592;49.708;10.900;2024-03-22T06:35:29;99070.38;;;11.53;48.53
21433;BME280;18592;49.708;10.900;2024-03-22T06:37:44;99067.66;;;11.53;48.47
21433;BME280;18592;49.708;10.900;2024-03-22T06:40:06;99068.34;;;11.48;48.58
21433;BME280;18592;49.708;10.900;2024-03-22T06:42:20;99056.63;;;11.48;48.37
21433;BME280;18592;49.708;10.900;2024-03-22T06:44:41;99057.69;;;11.47;48.89
21433;BME280;18592;49.708;10.900;2024-03-22T06:46:55;99055.81;;;11.47;48.42
21433;BME280;18592;49.708;10.900;2024-03-22T06:49:09;99050.81;;;11.44;48.82
21433;BME280;18592;49.708;10.900;2024-03-22T06:51:15;99056.53;;;11.43;49.04
21433;BME280;18592;49.708;10.900;2024-03-22T06:53:15;99057.34;;;11.43;49.08
21433;BME280;18592;49.708;10.900;2024-03-22T06:55:16;99054.03;;;11.41;49.32
21433;BME280;18592;49.708;10.900;2024-03-22T06:57:16;99060.34;;;11.42;48.99
21433;BME280;18592;49.708;10.900;2024-03-22T06:59:16;99045.63;;;11.43;48.80
21433;BME280;18592;49.708;10.900;2024-03-22T07:01:17;99048.56;;;11.41;49.44
21433;BME280;18592;49.708;10.900;2024-03-22T07:03:17;99046.69;;;11.42;49.39
21433;BME280;18592;49.708;10.900;2024-03-22T07:05:18;99045.84;;;11.41;49.46
21433;BME280;18592;49.708;10.900;2024-03-22T07:07:18;99039.81;;;11.39;49.66
21433;BME280;18592;49.708;10.900;2024-03-22T07:09:19;99043.94;;;11.42;49.39
21433;BME280;18592;49.708;10.900;2024-03-22T07:11:49;99045.63;;;11.43;50.03
21433;BME280;18592;49.708;10.900;2024-03-22T07:13:56;99035.50;;;11.43;49.91
21433;BME280;18592;49.708;10.900;2024-03-22T07:16:24;99040.16;;;11.43;50.33
21433;BME280;18592;49.708;10.900;2024-03-22T07:18:31;99035.28;;;11.45;49.96
21433;BME280;18592;49.708;10.900;2024-03-22T07:20:59;99045.09;;;11.46;50.43
21433;BME280;18592;49.708;10.900;2024-03-22T07:23:08;99041.06;;;11.48;50.17
21433;BME280;18592;49.708;10.900;2024-03-22T07:25:36;99040.84;;;11.50;50.37
21433;BME280;18592;49.708;10.900;2024-03-22T07:27:43;99043.06;;;11.53;50.52
21433;BME280;18592;49.708;10.900;2024-03-22T07:30:11;99042.00;;;11.54;51.08
21433;BME280;18592;49.708;10.900;2024-03-22T07:32:18;99043.41;;;11.57;50.73
21433;BME280;18592;49.708;10.900;2024-03-22T07:34:46;99045.91;;;11.58;51.10
21433;BME280;18592;49.708;10.900;2024-03-22T07:36:53;99039.13;;;11.61;50.82
21433;BME280;18592;49.708;10.900;2024-03-22T07:39:21;99041.59;;;11.62;51.18
21433;BME280;18592;49.708;10.900;2024-03-22T07:41:35;99041.94;;;11.66;50.72
21433;BME280;18592;49.708;10.900;2024-03-22T07:43:56;99037.06;;;11.68;51.48
21433;BME280;18592;49.708;10.900;2024-03-22T07:46:03;99042.91;;;11.71;51.20
21433;BME280;18592;49.708;10.900;2024-03-22T07:48:31;99033.13;;;11.75;51.90
21433;BME280;18592;49.708;10.900;2024-03-22T07:50:45;99035.09;;;11.80;51.30
21433;BME280;18592;49.708;10.900;2024-03-22T07:53:06;99028.31;;;11.82;51.91
21433;BME280;18592;49.708;10.900;2024-03-22T07:55:20;99024.03;;;11.86;52.05
21433;BME280;18592;49.708;10.900;2024-03-22T07:57:41;99028.75;;;11.91;52.22
21433;BME280;18592;49.708;10.900;2024-03-22T07:59:55;99030.25;;;11.98;52.24
21433;BME280;18592;49.708;10.900;2024-03-22T08:02:24;99032.78;;;12.05;52.38
21433;BME280;18592;49.708;10.900;2024-03-22T08:04:38;99028.25;;;12.10;52.55
21433;BME280;18592;49.708;10.900;2024-03-22T08:06:59;99020.97;;;12.16;52.92
21433;BME280;18592;49.708;10.900;2024-03-22T08:09:13;99024.06;;;12.25;51.83
21433;BME280;18592;49.708;10.900;2024-03-22T08:11:34;99025.06;;;12.35;52.07
21433;BME280;18592;49.708;10.900;2024-03-22T08:13:48;99018.91;;;12.45;51.76
21433;BME280;18592;49.708;10.900;2024-03-22T08:16:15;99017.50;;;12.59;51.76
21433;BME280;18592;49.708;10.900;2024-03-22T08:18:29;99014.97;;;12.74;51.85
21433;BME280;18592;49.708;10.900;2024-03-22T08:20:50;99021.19;;;12.91;51.88
21433;BME280;18592;49.708;10.900;2024-03-22T08:23:04;99013.19;;;13.06;51.72
21433;BME280;18592;49.708;10.900;2024-03-22T08:25:25;99012.81;;;13.19;51.81
21433;BME280;18592;49.708;10.900;2024-03-22T08:27:54;99007.22;;;13.36;51.02
21433;BME280;18592;49.708;10.900;2024-03-22T08:30:15;99000.00;;;13.52;50.90
21433;BME280;18592;49.708;10.900;2024-03-22T08:32:29;98998.22;;;13.67;51.41
21433;BME280;18592;49.708;10.900;2024-03-22T08:34:57;99004.16;;;13.86;51.80
21433;BME280;18592;49.708;10.900;2024-03-22T08:37:04;98996.09;;;14.06;52.14
21433;BME280;18592;49.708;10.900;2024-03-22T08:39:32;99002.00;;;14.30;52.84
21433;BME280;18592;49.708;10.900;2024-03-22T08:41:40;98995.88;;;14.49;52.84
21433;BME280;18592;49.708;10.900;2024-03-22T08:44:08;98994.06;;;14.75;53.67
21433;BME280;18592;49.708;10.900;2024-03-22T08:46:15;98995.53;;;14.98;53.25
21433;BME280;18592;49.708;10.900;2024-03-22T08:48:44;98994.81;;;15.22;54.17
21433;BME280;18592;49.708;10.900;2024-03-22T08:50:53;98990.19;;;15.43;53.66
21433;BME280;18592;49.708;10.900;2024-03-22T08:53:24;98994.41;;;15.66;54.13
21433;BME280;18592;49.708;10.900;2024-03-22T08:55:31;99000.16;;;15.84;53.78
21433;BME280;18592;49.708;10.900;2024-03-22T08:57:59;98996.31;;;16.06;53.84
21433;BME280;18592;49.708;10.900;2024-03-22T09:00:06;98988.88;;;16.26;53.34
21433;BME280;18592;49.708;10.900;2024-03-22T09:02:34;98989.66;;;16.47;53.35
21433;BME280;18592;49.708;10.900;2024-03-22T09:04:41;98984.41;;;16.66;53.11
21433;BME280;18592;49.708;10.900;2024-03-22T09:07:09;98977.75;;;16.87;53.48
21433;BME280;18592;49.708;10.900;2024-03-22T09:09:16;98979.88;;;17.05;53.31
21433;BME280;18592;49.708;10.900;2024-03-22T09:11:44;98975.34;;;17.24;53.23
21433;BME280;18592;49.708;10.900;2024-03-22T09:13:58;98971.13;;;17.42;53.02
21433;BME280;18592;49.708;10.900;2024-03-22T09:16:12;98964.97;;;17.60;52.54
21433;BME280;18592;49.708;10.900;2024-03-22T09:18:19;98963.44;;;17.77;52.61
21433;BME280;18592;49.708;10.900;2024-03-22T09:20:47;98957.25;;;17.96;53.17
21433;BME280;18592;49.708;10.900;2024-03-22T09:23:02;98957.06;;;18.16;52.68
21433;BME280;18592;49.708;10.900;2024-03-22T09:25:27;98948.03;;;18.34;52.73
21433;BME280;18592;49.708;10.900;2024-03-22T09:27:41;98942.59;;;18.53;52.46
21433;BME280;18592;49.708;10.900;2024-03-22T09:30:02;98936.31;;;18.71;52.90
21433;BME280;18592;49.708;10.900;2024-03-22T09:32:18;98939.94;;;18.90;52.43
21433;BME280;18592;49.708;10.900;2024-03-22T09:34:40;98942.22;;;19.07;51.61
21433;BME280;18592;49.708;10.900;2024-03-22T09:36:54;98937.91;;;19.19;51.07
21433;BME280;18592;49.708;10.900;2024-03-22T09:39:15;98923.94;;;19.29;51.01
21433;BME280;18592;49.708;10.900;2024-03-22T09:41:31;98927.69;;;19.38;50.25
21433;BME280;18592;49.708;10.900;2024-03-22T09:43:52;98919.88;;;19.45;49.92
21433;BME280;18592;49.708;10.900;2024-03-22T09:46:06;98918.88;;;19.55;49.93
21433;BME280;18592;49.708;10.900;2024-03-22T09:48:28;98915.72;;;19.61;48.94
21433;BME280;18592;49.708;10.900;2024-03-22T09:50:42;98906.44;;;19.71;49.97
21433;BME280;18592;49.708;10.900;2024-03-22T09:53:03;98897.69;;;19.96;48.50
21433;BME280;18592;49.708;10.900;2024-03-22T09:55:26;98889.41;;;19.96;47.73
21433;BME280;18592;49.708;10.900;2024-03-22T09:57:55;98890.72;;;19.99;48.17
21433;BME280;18592;49.708;10.900;2024-03-22T10:00:20;98888.19;;;20.02;47.65
21433;BME280;18592;49.708;10.900;2024-03-22T10:02:41;98891.28;;;20.01;46.33
21433;BME280;18592;49.708;10.900;2024-03-22T10:04:56;98878.47;;;20.05;47.13
21433;BME280;18592;49.708;10.900;2024-03-22T10:07:17;98878.78;;;20.03;47.01
21433;BME280;18592;49.708;10.900;2024-03-22T10:09:32;98876.44;;;20.10;47.26
21433;BME280;18592;49.708;10.900;2024-03-22T10:11:53;98866.88;;;20.16;47.44
21433;BME280;18592;49.708;10.900;2024-03-22T10:14:15;98860.88;;;20.28;47.02
21433;BME280;18592;49.708;10.900;2024-03-22T10:16:41;98847.78;;;20.34;46.53
21433;BME280;18592;49.708;10.900;2024-03-22T10:18:55;98846.84;;;20.38;46.85
21433;BME280;18592;49.708;10.900;2024-03-22T10:21:19;98840.38;;;20.43;46.19
21433;BME280;18592;49.708;10.900;2024-03-22T10:23:33;98838.31;;;20.48;45.89
21433;BME280;18592;49.708;10.900;2024-03-22T10:25:54;98844.06;;;20.52;45.43
21433;BME280;18592;49.708;10.900;2024-03-22T10:28:09;98841.50;;;20.55;45.79
21433;BME280;18592;49.708;10.900;2024-03-22T10:30:30;98833.69;;;20.57;45.14
21433;BME280;18592;49.708;10.900;2024-03-22T10:32:44;98821.16;;;20.60;45.41
21433;BME280;18592;49.708;10.900;2024-03-22T10:35:05;98824.16;;;20.63;44.93
21433;BME280;18592;49.708;10.900;2024-03-22T10:37:35;98819.41;;;20.77;45.43
21433;BME280;18592;49.708;10.900;2024-03-22T10:39:58;98810.47;;;20.80;45.14
21433;BME280;18592;49.708;10.900;2024-03-22T10:42:12;98807.28;;;20.87;45.37
21433;BME280;18592;49.708;10.900;2024-03-22T10:44:33;98805.91;;;21.12;43.49
21433;BME280;18592;49.708;10.900;2024-03-22T10:47:04;98800.16;;;21.08;44.17
21433;BME280;18592;49.708;10.900;2024-03-22T10:49:19;98799.84;;;21.10;44.04
21433;BME280;18592;49.708;10.900;2024-03-22T10:51:51;98801.97;;;21.13;44.01
21433;BME280;18592;49.708;10.900;2024-03-22T10:54:06;98793.53;;;21.18;44.23
21433;BME280;18592;49.708;10.900;2024-03-22T10:56:50;98796.19;;;21.23;44.51
21433;BME280;18592;49.708;10.900;2024-03-22T10:59:03;98794.09;;;21.28;44.30
21433;BME280;18592;49.708;10.900;2024-03-22T11:01:31;98791.53;;;21.32;44.17
21433;BME280;18592;49.708;10.900;2024-03-22T11:03:43;98777.53;;;21.37;44.44
21433;BME280;18592;49.708;10.900;2024-03-22T11:06:11;98766.63;;;21.40;44.07
21433;BME280;18592;49.708;10.900;2024-03-22T11:08:26;98760.31;;;21.48;44.49
21433;BME280;18592;49.708;10.900;2024-03-22T11:10:48;98765.09;;;21.57;43.94